<?xml version="1.0" encoding="UTF-8" standalone="no" ?>
<gpx xmlns="http://www.topografix.com/GPX/1/1" xmlns:xsi="http://www.w3.org/2001/XMLSchema-instance" xsi:schemaLocation="http://www.topografix.com/GPX/1/1 http://www.topografix.com/GPX/1/1/gpx.xsd" version="1.1" creator="VisuGPX - https://www.visugpx.com">
  <metadata>
    <name>Coursegoules : La Roubine /Garavagne</name>
    <desc><![CDATA[Très beau circuit verdoyant mais aussi avec de beaux paysages, des montées et des descentes mais pas trop sévères..........]]></desc>
  </metadata>
  <trk>
    <name><![CDATA[Roubine / Garavagne]]></name>
    <trkseg>
      <trkpt lat="43.78842" lon="7.03431">
        <ele>971.4</ele>
        <time>2019-04-17T12:40:27Z</time>
      </trkpt>
      <trkpt lat="43.78843" lon="7.03431">
        <ele>971.6</ele>
        <time>2019-04-17T12:40:28Z</time>
      </trkpt>
      <trkpt lat="43.78833" lon="7.03429">
        <ele>971.4</ele>
        <time>2019-04-17T12:41:08Z</time>
      </trkpt>
      <trkpt lat="43.78791" lon="7.03405">
        <ele>971.6</ele>
        <time>2019-04-17T12:41:46Z</time>
      </trkpt>
      <trkpt lat="43.78762" lon="7.03388">
        <ele>972</ele>
        <time>2019-04-17T12:42:14Z</time>
      </trkpt>
      <trkpt lat="43.7872" lon="7.03362">
        <ele>973</ele>
        <time>2019-04-17T12:42:51Z</time>
      </trkpt>
      <trkpt lat="43.78676" lon="7.03345">
        <ele>976</ele>
        <time>2019-04-17T12:43:29Z</time>
      </trkpt>
      <trkpt lat="43.78646" lon="7.03386">
        <ele>978</ele>
        <time>2019-04-17T12:44:09Z</time>
      </trkpt>
      <trkpt lat="43.78608" lon="7.0342">
        <ele>980.4</ele>
        <time>2019-04-17T12:44:49Z</time>
      </trkpt>
      <trkpt lat="43.7857" lon="7.03449">
        <ele>982.8</ele>
        <time>2019-04-17T12:45:32Z</time>
      </trkpt>
      <trkpt lat="43.78568" lon="7.03449">
        <ele>983</ele>
        <time>2019-04-17T12:45:35Z</time>
      </trkpt>
      <trkpt lat="43.78556" lon="7.03447">
        <ele>983.6</ele>
        <time>2019-04-17T12:45:48Z</time>
      </trkpt>
      <trkpt lat="43.7851" lon="7.0345">
        <ele>990</ele>
        <time>2019-04-17T12:46:35Z</time>
      </trkpt>
      <trkpt lat="43.7849" lon="7.03452">
        <ele>992.2</ele>
        <time>2019-04-17T12:47:01Z</time>
      </trkpt>
      <trkpt lat="43.78444" lon="7.03447">
        <ele>1000</ele>
        <time>2019-04-17T12:47:47Z</time>
      </trkpt>
      <trkpt lat="43.78412" lon="7.03436">
        <ele>1004.8</ele>
        <time>2019-04-17T12:48:27Z</time>
      </trkpt>
      <trkpt lat="43.78391" lon="7.03425">
        <ele>1006</ele>
        <time>2019-04-17T12:48:52Z</time>
      </trkpt>
      <trkpt lat="43.78351" lon="7.03397">
        <ele>1018.8</ele>
        <time>2019-04-17T12:49:32Z</time>
      </trkpt>
      <trkpt lat="43.7832" lon="7.0335">
        <ele>1023</ele>
        <time>2019-04-17T12:50:13Z</time>
      </trkpt>
      <trkpt lat="43.7831" lon="7.03305">
        <ele>1026.4</ele>
        <time>2019-04-17T12:50:46Z</time>
      </trkpt>
      <trkpt lat="43.78289" lon="7.03251">
        <ele>1042.8</ele>
        <time>2019-04-17T12:51:38Z</time>
      </trkpt>
      <trkpt lat="43.78252" lon="7.0322">
        <ele>1048</ele>
        <time>2019-04-17T12:52:23Z</time>
      </trkpt>
      <trkpt lat="43.7821" lon="7.03195">
        <ele>1052</ele>
        <time>2019-04-17T12:53:04Z</time>
      </trkpt>
      <trkpt lat="43.78201" lon="7.03168">
        <ele>1052.8</ele>
        <time>2019-04-17T12:53:25Z</time>
      </trkpt>
      <trkpt lat="43.78189" lon="7.03128">
        <ele>1051.2</ele>
        <time>2019-04-17T12:53:54Z</time>
      </trkpt>
      <trkpt lat="43.7815" lon="7.03096">
        <ele>1057</ele>
        <time>2019-04-17T12:54:44Z</time>
      </trkpt>
      <trkpt lat="43.78112" lon="7.03067">
        <ele>1060.4</ele>
        <time>2019-04-17T12:55:46Z</time>
      </trkpt>
      <trkpt lat="43.78111" lon="7.03066">
        <ele>1062</ele>
        <time>2019-04-17T12:56:01Z</time>
      </trkpt>
      <trkpt lat="43.78112" lon="7.03066">
        <ele>1062.2</ele>
        <time>2019-04-17T12:56:16Z</time>
      </trkpt>
      <trkpt lat="43.7811" lon="7.03068">
        <ele>1063.4</ele>
        <time>2019-04-17T12:56:42Z</time>
      </trkpt>
      <trkpt lat="43.7811" lon="7.03065">
        <ele>1062.6</ele>
        <time>2019-04-17T12:56:59Z</time>
      </trkpt>
      <trkpt lat="43.78111" lon="7.03065">
        <ele>1067.2</ele>
        <time>2019-04-17T12:58:31Z</time>
      </trkpt>
      <trkpt lat="43.78113" lon="7.03062">
        <ele>1063</ele>
        <time>2019-04-17T13:02:56Z</time>
      </trkpt>
      <trkpt lat="43.78103" lon="7.03059">
        <ele>1059.2</ele>
        <time>2019-04-17T13:04:08Z</time>
      </trkpt>
      <trkpt lat="43.7807" lon="7.03026">
        <ele>1069.6</ele>
        <time>2019-04-17T13:04:50Z</time>
      </trkpt>
      <trkpt lat="43.7806" lon="7.0301">
        <ele>1075</ele>
        <time>2019-04-17T13:05:06Z</time>
      </trkpt>
      <trkpt lat="43.78042" lon="7.02984">
        <ele>1077.2</ele>
        <time>2019-04-17T13:05:31Z</time>
      </trkpt>
      <trkpt lat="43.78032" lon="7.02971">
        <ele>1078.4</ele>
        <time>2019-04-17T13:05:44Z</time>
      </trkpt>
      <trkpt lat="43.78027" lon="7.02941">
        <ele>1078.8</ele>
        <time>2019-04-17T13:06:04Z</time>
      </trkpt>
      <trkpt lat="43.78014" lon="7.02933">
        <ele>1084</ele>
        <time>2019-04-17T13:06:22Z</time>
      </trkpt>
      <trkpt lat="43.78012" lon="7.02933">
        <ele>1084.2</ele>
        <time>2019-04-17T13:06:24Z</time>
      </trkpt>
      <trkpt lat="43.77977" lon="7.02895">
        <ele>1083.4</ele>
        <time>2019-04-17T13:07:14Z</time>
      </trkpt>
      <trkpt lat="43.77972" lon="7.02889">
        <ele>1085.4</ele>
        <time>2019-04-17T13:07:21Z</time>
      </trkpt>
      <trkpt lat="43.77957" lon="7.02873">
        <ele>1090.4</ele>
        <time>2019-04-17T13:07:41Z</time>
      </trkpt>
      <trkpt lat="43.77933" lon="7.02885">
        <ele>1100.4</ele>
        <time>2019-04-17T13:08:31Z</time>
      </trkpt>
      <trkpt lat="43.77894" lon="7.02853">
        <ele>1106</ele>
        <time>2019-04-17T13:09:14Z</time>
      </trkpt>
      <trkpt lat="43.7786" lon="7.02814">
        <ele>1110.8</ele>
        <time>2019-04-17T13:10:04Z</time>
      </trkpt>
      <trkpt lat="43.7783" lon="7.0278">
        <ele>1110.8</ele>
        <time>2019-04-17T13:10:50Z</time>
      </trkpt>
      <trkpt lat="43.77813" lon="7.02774">
        <ele>1114.2</ele>
        <time>2019-04-17T13:11:08Z</time>
      </trkpt>
      <trkpt lat="43.77768" lon="7.02763">
        <ele>1118.4</ele>
        <time>2019-04-17T13:11:51Z</time>
      </trkpt>
      <trkpt lat="43.77763" lon="7.02765">
        <ele>1119.2</ele>
        <time>2019-04-17T13:11:56Z</time>
      </trkpt>
      <trkpt lat="43.77735" lon="7.02771">
        <ele>1124.2</ele>
        <time>2019-04-17T13:12:32Z</time>
      </trkpt>
      <trkpt lat="43.77695" lon="7.02777">
        <ele>1130.6</ele>
        <time>2019-04-17T13:13:06Z</time>
      </trkpt>
      <trkpt lat="43.77668" lon="7.02785">
        <ele>1130.8</ele>
        <time>2019-04-17T13:13:30Z</time>
      </trkpt>
      <trkpt lat="43.77649" lon="7.02781">
        <ele>1132.6</ele>
        <time>2019-04-17T13:13:48Z</time>
      </trkpt>
      <trkpt lat="43.7762" lon="7.02774">
        <ele>1131.8</ele>
        <time>2019-04-17T13:14:11Z</time>
      </trkpt>
      <trkpt lat="43.77587" lon="7.02765">
        <ele>1131.6</ele>
        <time>2019-04-17T13:14:38Z</time>
      </trkpt>
      <trkpt lat="43.77547" lon="7.02737">
        <ele>1127</ele>
        <time>2019-04-17T13:15:12Z</time>
      </trkpt>
      <trkpt lat="43.7751" lon="7.02703">
        <ele>1128.8</ele>
        <time>2019-04-17T13:15:50Z</time>
      </trkpt>
      <trkpt lat="43.77485" lon="7.02679">
        <ele>1128.2</ele>
        <time>2019-04-17T13:16:15Z</time>
      </trkpt>
      <trkpt lat="43.77451" lon="7.02639">
        <ele>1118.4</ele>
        <time>2019-04-17T13:16:54Z</time>
      </trkpt>
      <trkpt lat="43.77412" lon="7.02609">
        <ele>1111.4</ele>
        <time>2019-04-17T13:17:40Z</time>
      </trkpt>
      <trkpt lat="43.77376" lon="7.02616">
        <ele>1107.2</ele>
        <time>2019-04-17T13:18:14Z</time>
      </trkpt>
      <trkpt lat="43.77335" lon="7.02641">
        <ele>1101</ele>
        <time>2019-04-17T13:18:55Z</time>
      </trkpt>
      <trkpt lat="43.77309" lon="7.02655">
        <ele>1100.8</ele>
        <time>2019-04-17T13:19:19Z</time>
      </trkpt>
      <trkpt lat="43.77266" lon="7.02676">
        <ele>1095.2</ele>
        <time>2019-04-17T13:19:57Z</time>
      </trkpt>
      <trkpt lat="43.77227" lon="7.02691">
        <ele>1093.6</ele>
        <time>2019-04-17T13:20:56Z</time>
      </trkpt>
      <trkpt lat="43.77207" lon="7.02705">
        <ele>1091.2</ele>
        <time>2019-04-17T13:21:21Z</time>
      </trkpt>
      <trkpt lat="43.77199" lon="7.02719">
        <ele>1085.8</ele>
        <time>2019-04-17T13:21:38Z</time>
      </trkpt>
      <trkpt lat="43.77193" lon="7.02751">
        <ele>1084.2</ele>
        <time>2019-04-17T13:22:37Z</time>
      </trkpt>
      <trkpt lat="43.77193" lon="7.02749">
        <ele>1091</ele>
        <time>2019-04-17T13:23:40Z</time>
      </trkpt>
      <trkpt lat="43.77192" lon="7.02748">
        <ele>1091.4</ele>
        <time>2019-04-17T13:24:05Z</time>
      </trkpt>
      <trkpt lat="43.77192" lon="7.02748">
        <ele>1091.2</ele>
        <time>2019-04-17T13:25:52Z</time>
      </trkpt>
      <trkpt lat="43.77195" lon="7.02748">
        <ele>1088.8</ele>
        <time>2019-04-17T13:29:56Z</time>
      </trkpt>
      <trkpt lat="43.77195" lon="7.02746">
        <ele>1086.8</ele>
        <time>2019-04-17T13:30:40Z</time>
      </trkpt>
      <trkpt lat="43.77197" lon="7.02738">
        <ele>1084.8</ele>
        <time>2019-04-17T13:31:25Z</time>
      </trkpt>
      <trkpt lat="43.77195" lon="7.02747">
        <ele>1084.4</ele>
        <time>2019-04-17T13:31:40Z</time>
      </trkpt>
      <trkpt lat="43.77194" lon="7.02747">
        <ele>1088</ele>
        <time>2019-04-17T13:32:09Z</time>
      </trkpt>
      <trkpt lat="43.77195" lon="7.02747">
        <ele>1089.4</ele>
        <time>2019-04-17T13:32:31Z</time>
      </trkpt>
      <trkpt lat="43.77196" lon="7.02747">
        <ele>1089.6</ele>
        <time>2019-04-17T13:32:50Z</time>
      </trkpt>
      <trkpt lat="43.77192" lon="7.02759">
        <ele>1083.4</ele>
        <time>2019-04-17T13:34:36Z</time>
      </trkpt>
      <trkpt lat="43.77164" lon="7.02809">
        <ele>1076.6</ele>
        <time>2019-04-17T13:35:11Z</time>
      </trkpt>
      <trkpt lat="43.7713" lon="7.02849">
        <ele>1072.4</ele>
        <time>2019-04-17T13:35:46Z</time>
      </trkpt>
      <trkpt lat="43.77127" lon="7.02853">
        <ele>1071.6</ele>
        <time>2019-04-17T13:35:52Z</time>
      </trkpt>
      <trkpt lat="43.77092" lon="7.02894">
        <ele>1068.6</ele>
        <time>2019-04-17T13:36:26Z</time>
      </trkpt>
      <trkpt lat="43.77075" lon="7.02908">
        <ele>1066.2</ele>
        <time>2019-04-17T13:36:43Z</time>
      </trkpt>
      <trkpt lat="43.77073" lon="7.02904">
        <ele>1066</ele>
        <time>2019-04-17T13:36:47Z</time>
      </trkpt>
      <trkpt lat="43.7707" lon="7.02841">
        <ele>1058</ele>
        <time>2019-04-17T13:37:22Z</time>
      </trkpt>
      <trkpt lat="43.77034" lon="7.02854">
        <ele>1048.2</ele>
        <time>2019-04-17T13:37:58Z</time>
      </trkpt>
      <trkpt lat="43.77017" lon="7.02829">
        <ele>1048.2</ele>
        <time>2019-04-17T13:38:33Z</time>
      </trkpt>
      <trkpt lat="43.77024" lon="7.02783">
        <ele>1043</ele>
        <time>2019-04-17T13:39:01Z</time>
      </trkpt>
      <trkpt lat="43.76995" lon="7.02791">
        <ele>1035.6</ele>
        <time>2019-04-17T13:39:28Z</time>
      </trkpt>
      <trkpt lat="43.76999" lon="7.0273">
        <ele>1036.8</ele>
        <time>2019-04-17T13:40:03Z</time>
      </trkpt>
      <trkpt lat="43.7696" lon="7.02711">
        <ele>1024.8</ele>
        <time>2019-04-17T13:40:42Z</time>
      </trkpt>
      <trkpt lat="43.76915" lon="7.02705">
        <ele>1018.6</ele>
        <time>2019-04-17T13:41:15Z</time>
      </trkpt>
      <trkpt lat="43.76885" lon="7.02699">
        <ele>1021</ele>
        <time>2019-04-17T13:42:02Z</time>
      </trkpt>
      <trkpt lat="43.76884" lon="7.02699">
        <ele>1021.6</ele>
        <time>2019-04-17T13:42:49Z</time>
      </trkpt>
      <trkpt lat="43.76878" lon="7.02692">
        <ele>1019</ele>
        <time>2019-04-17T13:49:17Z</time>
      </trkpt>
      <trkpt lat="43.76878" lon="7.02687">
        <ele>1019</ele>
        <time>2019-04-17T13:49:21Z</time>
      </trkpt>
      <trkpt lat="43.76896" lon="7.02629">
        <ele>1021.4</ele>
        <time>2019-04-17T13:50:02Z</time>
      </trkpt>
      <trkpt lat="43.7691" lon="7.02569">
        <ele>1017.2</ele>
        <time>2019-04-17T13:50:34Z</time>
      </trkpt>
      <trkpt lat="43.7692" lon="7.02509">
        <ele>1008.2</ele>
        <time>2019-04-17T13:51:05Z</time>
      </trkpt>
      <trkpt lat="43.76926" lon="7.02449">
        <ele>1007</ele>
        <time>2019-04-17T13:51:37Z</time>
      </trkpt>
      <trkpt lat="43.76957" lon="7.02405">
        <ele>999</ele>
        <time>2019-04-17T13:52:08Z</time>
      </trkpt>
      <trkpt lat="43.76967" lon="7.02343">
        <ele>1000</ele>
        <time>2019-04-17T13:52:39Z</time>
      </trkpt>
      <trkpt lat="43.76997" lon="7.02296">
        <ele>995</ele>
        <time>2019-04-17T13:53:13Z</time>
      </trkpt>
      <trkpt lat="43.77016" lon="7.0224">
        <ele>995.6</ele>
        <time>2019-04-17T13:53:43Z</time>
      </trkpt>
      <trkpt lat="43.77022" lon="7.02208">
        <ele>999.2</ele>
        <time>2019-04-17T13:54:01Z</time>
      </trkpt>
      <trkpt lat="43.77031" lon="7.0219">
        <ele>1000.8</ele>
        <time>2019-04-17T13:54:12Z</time>
      </trkpt>
      <trkpt lat="43.77071" lon="7.02162">
        <ele>999.4</ele>
        <time>2019-04-17T13:54:43Z</time>
      </trkpt>
      <trkpt lat="43.7708" lon="7.02137">
        <ele>998.4</ele>
        <time>2019-04-17T13:54:58Z</time>
      </trkpt>
      <trkpt lat="43.7707" lon="7.02078">
        <ele>1002.6</ele>
        <time>2019-04-17T13:55:31Z</time>
      </trkpt>
      <trkpt lat="43.77087" lon="7.02025">
        <ele>1004.4</ele>
        <time>2019-04-17T13:56:00Z</time>
      </trkpt>
      <trkpt lat="43.77109" lon="7.02007">
        <ele>1003.8</ele>
        <time>2019-04-17T13:56:17Z</time>
      </trkpt>
      <trkpt lat="43.77136" lon="7.01973">
        <ele>1000.2</ele>
        <time>2019-04-17T13:56:46Z</time>
      </trkpt>
      <trkpt lat="43.77137" lon="7.01945">
        <ele>999.2</ele>
        <time>2019-04-17T13:57:03Z</time>
      </trkpt>
      <trkpt lat="43.77143" lon="7.01911">
        <ele>1001.8</ele>
        <time>2019-04-17T13:57:23Z</time>
      </trkpt>
      <trkpt lat="43.77172" lon="7.01863">
        <ele>1000.8</ele>
        <time>2019-04-17T13:57:57Z</time>
      </trkpt>
      <trkpt lat="43.77184" lon="7.01804">
        <ele>1002</ele>
        <time>2019-04-17T13:58:36Z</time>
      </trkpt>
      <trkpt lat="43.77182" lon="7.01791">
        <ele>1005.8</ele>
        <time>2019-04-17T13:58:46Z</time>
      </trkpt>
      <trkpt lat="43.77184" lon="7.0176">
        <ele>1011.2</ele>
        <time>2019-04-17T13:59:12Z</time>
      </trkpt>
      <trkpt lat="43.77186" lon="7.01752">
        <ele>1012.2</ele>
        <time>2019-04-17T13:59:21Z</time>
      </trkpt>
      <trkpt lat="43.77192" lon="7.01739">
        <ele>1017.4</ele>
        <time>2019-04-17T13:59:45Z</time>
      </trkpt>
      <trkpt lat="43.77193" lon="7.01738">
        <ele>1017.8</ele>
        <time>2019-04-17T13:59:47Z</time>
      </trkpt>
      <trkpt lat="43.77199" lon="7.01717">
        <ele>1017.2</ele>
        <time>2019-04-17T14:00:08Z</time>
      </trkpt>
      <trkpt lat="43.772" lon="7.01704">
        <ele>1021.6</ele>
        <time>2019-04-17T14:00:21Z</time>
      </trkpt>
      <trkpt lat="43.77237" lon="7.01668">
        <ele>1033</ele>
        <time>2019-04-17T14:01:07Z</time>
      </trkpt>
      <trkpt lat="43.7726" lon="7.01616">
        <ele>1032.6</ele>
        <time>2019-04-17T14:01:53Z</time>
      </trkpt>
      <trkpt lat="43.77265" lon="7.01601">
        <ele>1034.4</ele>
        <time>2019-04-17T14:02:02Z</time>
      </trkpt>
      <trkpt lat="43.77284" lon="7.01564">
        <ele>1033.2</ele>
        <time>2019-04-17T14:02:29Z</time>
      </trkpt>
      <trkpt lat="43.77288" lon="7.01563">
        <ele>1029.4</ele>
        <time>2019-04-17T14:02:49Z</time>
      </trkpt>
      <trkpt lat="43.77286" lon="7.01561">
        <ele>1029.8</ele>
        <time>2019-04-17T14:03:09Z</time>
      </trkpt>
      <trkpt lat="43.77286" lon="7.01562">
        <ele>1030.2</ele>
        <time>2019-04-17T14:03:43Z</time>
      </trkpt>
      <trkpt lat="43.77287" lon="7.01559">
        <ele>1031.2</ele>
        <time>2019-04-17T14:04:20Z</time>
      </trkpt>
      <trkpt lat="43.77289" lon="7.0156">
        <ele>1030.6</ele>
        <time>2019-04-17T14:06:16Z</time>
      </trkpt>
      <trkpt lat="43.77289" lon="7.0156">
        <ele>1030.6</ele>
        <time>2019-04-17T14:06:22Z</time>
      </trkpt>
      <trkpt lat="43.77286" lon="7.01562">
        <ele>1031.4</ele>
        <time>2019-04-17T14:07:53Z</time>
      </trkpt>
      <trkpt lat="43.77287" lon="7.01561">
        <ele>1031.2</ele>
        <time>2019-04-17T14:08:19Z</time>
      </trkpt>
      <trkpt lat="43.77286" lon="7.01553">
        <ele>1031.2</ele>
        <time>2019-04-17T14:09:42Z</time>
      </trkpt>
      <trkpt lat="43.77284" lon="7.01532">
        <ele>1029.6</ele>
        <time>2019-04-17T14:09:53Z</time>
      </trkpt>
      <trkpt lat="43.77326" lon="7.01514">
        <ele>1027.4</ele>
        <time>2019-04-17T14:10:29Z</time>
      </trkpt>
      <trkpt lat="43.77347" lon="7.0151">
        <ele>1027.2</ele>
        <time>2019-04-17T14:10:52Z</time>
      </trkpt>
      <trkpt lat="43.77392" lon="7.01497">
        <ele>1025</ele>
        <time>2019-04-17T14:11:26Z</time>
      </trkpt>
      <trkpt lat="43.77415" lon="7.01447">
        <ele>1016</ele>
        <time>2019-04-17T14:12:02Z</time>
      </trkpt>
      <trkpt lat="43.77426" lon="7.01428">
        <ele>1013.2</ele>
        <time>2019-04-17T14:12:17Z</time>
      </trkpt>
      <trkpt lat="43.77468" lon="7.01414">
        <ele>1015.8</ele>
        <time>2019-04-17T14:12:58Z</time>
      </trkpt>
      <trkpt lat="43.77478" lon="7.01393">
        <ele>1015.4</ele>
        <time>2019-04-17T14:13:14Z</time>
      </trkpt>
      <trkpt lat="43.77464" lon="7.01366">
        <ele>1005.8</ele>
        <time>2019-04-17T14:13:41Z</time>
      </trkpt>
      <trkpt lat="43.77452" lon="7.01342">
        <ele>1006.6</ele>
        <time>2019-04-17T14:14:01Z</time>
      </trkpt>
      <trkpt lat="43.77451" lon="7.0133">
        <ele>1001.6</ele>
        <time>2019-04-17T14:14:09Z</time>
      </trkpt>
      <trkpt lat="43.77442" lon="7.01269">
        <ele>992.8</ele>
        <time>2019-04-17T14:14:46Z</time>
      </trkpt>
      <trkpt lat="43.77442" lon="7.01267">
        <ele>992.6</ele>
        <time>2019-04-17T14:14:47Z</time>
      </trkpt>
      <trkpt lat="43.7743" lon="7.01207">
        <ele>987.8</ele>
        <time>2019-04-17T14:15:22Z</time>
      </trkpt>
      <trkpt lat="43.77422" lon="7.01192">
        <ele>987</ele>
        <time>2019-04-17T14:15:35Z</time>
      </trkpt>
      <trkpt lat="43.77397" lon="7.01171">
        <ele>984.2</ele>
        <time>2019-04-17T14:16:01Z</time>
      </trkpt>
      <trkpt lat="43.77399" lon="7.01163">
        <ele>991</ele>
        <time>2019-04-17T14:16:29Z</time>
      </trkpt>
      <trkpt lat="43.77401" lon="7.01167">
        <ele>995.2</ele>
        <time>2019-04-17T14:17:11Z</time>
      </trkpt>
      <trkpt lat="43.77396" lon="7.01165">
        <ele>999.4</ele>
        <time>2019-04-17T14:17:36Z</time>
      </trkpt>
      <trkpt lat="43.77392" lon="7.01149">
        <ele>999.6</ele>
        <time>2019-04-17T14:17:48Z</time>
      </trkpt>
      <trkpt lat="43.77395" lon="7.0114">
        <ele>996.2</ele>
        <time>2019-04-17T14:17:54Z</time>
      </trkpt>
      <trkpt lat="43.77395" lon="7.01132">
        <ele>994.4</ele>
        <time>2019-04-17T14:18:00Z</time>
      </trkpt>
      <trkpt lat="43.77396" lon="7.0113">
        <ele>993.2</ele>
        <time>2019-04-17T14:18:02Z</time>
      </trkpt>
      <trkpt lat="43.77407" lon="7.01102">
        <ele>990.4</ele>
        <time>2019-04-17T14:18:25Z</time>
      </trkpt>
      <trkpt lat="43.77415" lon="7.01078">
        <ele>994</ele>
        <time>2019-04-17T14:18:44Z</time>
      </trkpt>
      <trkpt lat="43.77418" lon="7.01063">
        <ele>996</ele>
        <time>2019-04-17T14:18:54Z</time>
      </trkpt>
      <trkpt lat="43.77424" lon="7.01058">
        <ele>995.4</ele>
        <time>2019-04-17T14:19:01Z</time>
      </trkpt>
      <trkpt lat="43.7744" lon="7.01047">
        <ele>993.2</ele>
        <time>2019-04-17T14:19:42Z</time>
      </trkpt>
      <trkpt lat="43.77439" lon="7.01037">
        <ele>992.2</ele>
        <time>2019-04-17T14:19:49Z</time>
      </trkpt>
      <trkpt lat="43.77437" lon="7.01032">
        <ele>991.2</ele>
        <time>2019-04-17T14:19:52Z</time>
      </trkpt>
      <trkpt lat="43.77434" lon="7.01026">
        <ele>990.4</ele>
        <time>2019-04-17T14:19:56Z</time>
      </trkpt>
      <trkpt lat="43.77431" lon="7.01019">
        <ele>989.6</ele>
        <time>2019-04-17T14:20:01Z</time>
      </trkpt>
      <trkpt lat="43.77421" lon="7.00996">
        <ele>994.8</ele>
        <time>2019-04-17T14:20:19Z</time>
      </trkpt>
      <trkpt lat="43.77415" lon="7.00984">
        <ele>1002</ele>
        <time>2019-04-17T14:20:29Z</time>
      </trkpt>
      <trkpt lat="43.77415" lon="7.00981">
        <ele>1002.8</ele>
        <time>2019-04-17T14:20:32Z</time>
      </trkpt>
      <trkpt lat="43.77408" lon="7.00956">
        <ele>1004.8</ele>
        <time>2019-04-17T14:20:54Z</time>
      </trkpt>
      <trkpt lat="43.77414" lon="7.00949">
        <ele>1008.2</ele>
        <time>2019-04-17T14:21:05Z</time>
      </trkpt>
      <trkpt lat="43.77435" lon="7.00942">
        <ele>1012</ele>
        <time>2019-04-17T14:21:24Z</time>
      </trkpt>
      <trkpt lat="43.77438" lon="7.00935">
        <ele>1013.2</ele>
        <time>2019-04-17T14:21:35Z</time>
      </trkpt>
      <trkpt lat="43.7745" lon="7.00927">
        <ele>1018.4</ele>
        <time>2019-04-17T14:21:51Z</time>
      </trkpt>
      <trkpt lat="43.77461" lon="7.0091">
        <ele>1018.6</ele>
        <time>2019-04-17T14:22:05Z</time>
      </trkpt>
      <trkpt lat="43.7748" lon="7.00864">
        <ele>1018</ele>
        <time>2019-04-17T14:22:33Z</time>
      </trkpt>
      <trkpt lat="43.77497" lon="7.00847">
        <ele>1015.6</ele>
        <time>2019-04-17T14:23:30Z</time>
      </trkpt>
      <trkpt lat="43.77497" lon="7.00848">
        <ele>1015.2</ele>
        <time>2019-04-17T14:23:43Z</time>
      </trkpt>
      <trkpt lat="43.77501" lon="7.00842">
        <ele>1014.8</ele>
        <time>2019-04-17T14:24:17Z</time>
      </trkpt>
      <trkpt lat="43.77531" lon="7.00795">
        <ele>1021</ele>
        <time>2019-04-17T14:24:55Z</time>
      </trkpt>
      <trkpt lat="43.77549" lon="7.00767">
        <ele>1026.6</ele>
        <time>2019-04-17T14:25:19Z</time>
      </trkpt>
      <trkpt lat="43.77554" lon="7.00759">
        <ele>1024.8</ele>
        <time>2019-04-17T14:25:26Z</time>
      </trkpt>
      <trkpt lat="43.77574" lon="7.00702">
        <ele>1021</ele>
        <time>2019-04-17T14:26:04Z</time>
      </trkpt>
      <trkpt lat="43.77581" lon="7.00682">
        <ele>1021.2</ele>
        <time>2019-04-17T14:26:18Z</time>
      </trkpt>
      <trkpt lat="43.77611" lon="7.00666">
        <ele>1027.6</ele>
        <time>2019-04-17T14:26:53Z</time>
      </trkpt>
      <trkpt lat="43.77648" lon="7.00696">
        <ele>1023.8</ele>
        <time>2019-04-17T14:27:27Z</time>
      </trkpt>
      <trkpt lat="43.77661" lon="7.00728">
        <ele>1030.4</ele>
        <time>2019-04-17T14:27:55Z</time>
      </trkpt>
      <trkpt lat="43.77684" lon="7.00735">
        <ele>1029.4</ele>
        <time>2019-04-17T14:28:58Z</time>
      </trkpt>
      <trkpt lat="43.77683" lon="7.00735">
        <ele>1029.4</ele>
        <time>2019-04-17T14:29:08Z</time>
      </trkpt>
      <trkpt lat="43.77684" lon="7.0073">
        <ele>1028.6</ele>
        <time>2019-04-17T14:29:17Z</time>
      </trkpt>
      <trkpt lat="43.77681" lon="7.00715">
        <ele>1026.2</ele>
        <time>2019-04-17T14:29:29Z</time>
      </trkpt>
      <trkpt lat="43.777" lon="7.00708">
        <ele>1029.4</ele>
        <time>2019-04-17T14:30:21Z</time>
      </trkpt>
      <trkpt lat="43.77702" lon="7.00709">
        <ele>1030.2</ele>
        <time>2019-04-17T14:30:24Z</time>
      </trkpt>
      <trkpt lat="43.77708" lon="7.00713">
        <ele>1030.4</ele>
        <time>2019-04-17T14:30:28Z</time>
      </trkpt>
      <trkpt lat="43.77712" lon="7.00717">
        <ele>1031.2</ele>
        <time>2019-04-17T14:30:32Z</time>
      </trkpt>
      <trkpt lat="43.77719" lon="7.00725">
        <ele>1032</ele>
        <time>2019-04-17T14:30:40Z</time>
      </trkpt>
      <trkpt lat="43.77728" lon="7.00752">
        <ele>1029.6</ele>
        <time>2019-04-17T14:31:21Z</time>
      </trkpt>
      <trkpt lat="43.7773" lon="7.0075">
        <ele>1029</ele>
        <time>2019-04-17T14:31:53Z</time>
      </trkpt>
      <trkpt lat="43.7773" lon="7.0075">
        <ele>1029.6</ele>
        <time>2019-04-17T14:32:14Z</time>
      </trkpt>
      <trkpt lat="43.7773" lon="7.00752">
        <ele>1031</ele>
        <time>2019-04-17T14:32:29Z</time>
      </trkpt>
      <trkpt lat="43.77729" lon="7.0074">
        <ele>1027.2</ele>
        <time>2019-04-17T14:33:31Z</time>
      </trkpt>
      <trkpt lat="43.77724" lon="7.00747">
        <ele>1029.4</ele>
        <time>2019-04-17T14:33:42Z</time>
      </trkpt>
      <trkpt lat="43.77714" lon="7.00809">
        <ele>1028</ele>
        <time>2019-04-17T14:34:20Z</time>
      </trkpt>
      <trkpt lat="43.77718" lon="7.00868">
        <ele>1031</ele>
        <time>2019-04-17T14:35:00Z</time>
      </trkpt>
      <trkpt lat="43.77727" lon="7.00881">
        <ele>1033.4</ele>
        <time>2019-04-17T14:35:14Z</time>
      </trkpt>
      <trkpt lat="43.77731" lon="7.00887">
        <ele>1033.2</ele>
        <time>2019-04-17T14:35:23Z</time>
      </trkpt>
      <trkpt lat="43.77731" lon="7.00884">
        <ele>1029.8</ele>
        <time>2019-04-17T14:36:13Z</time>
      </trkpt>
      <trkpt lat="43.77731" lon="7.00883">
        <ele>1029.6</ele>
        <time>2019-04-17T14:36:25Z</time>
      </trkpt>
      <trkpt lat="43.77732" lon="7.00882">
        <ele>1034.6</ele>
        <time>2019-04-17T14:44:28Z</time>
      </trkpt>
      <trkpt lat="43.77736" lon="7.00877">
        <ele>1035.6</ele>
        <time>2019-04-17T14:47:48Z</time>
      </trkpt>
      <trkpt lat="43.7775" lon="7.00861">
        <ele>1034</ele>
        <time>2019-04-17T14:48:03Z</time>
      </trkpt>
      <trkpt lat="43.77749" lon="7.00857">
        <ele>1034.6</ele>
        <time>2019-04-17T14:48:08Z</time>
      </trkpt>
      <trkpt lat="43.77746" lon="7.00858">
        <ele>1036.8</ele>
        <time>2019-04-17T14:48:15Z</time>
      </trkpt>
      <trkpt lat="43.77745" lon="7.00858">
        <ele>1036.8</ele>
        <time>2019-04-17T14:48:22Z</time>
      </trkpt>
      <trkpt lat="43.77743" lon="7.00857">
        <ele>1036</ele>
        <time>2019-04-17T14:48:28Z</time>
      </trkpt>
      <trkpt lat="43.77743" lon="7.00856">
        <ele>1035.2</ele>
        <time>2019-04-17T14:48:34Z</time>
      </trkpt>
      <trkpt lat="43.7775" lon="7.00857">
        <ele>1034.2</ele>
        <time>2019-04-17T14:48:51Z</time>
      </trkpt>
      <trkpt lat="43.77751" lon="7.0086">
        <ele>1033.6</ele>
        <time>2019-04-17T14:48:53Z</time>
      </trkpt>
      <trkpt lat="43.77751" lon="7.00867">
        <ele>1033.8</ele>
        <time>2019-04-17T14:48:57Z</time>
      </trkpt>
      <trkpt lat="43.77751" lon="7.00868">
        <ele>1033.8</ele>
        <time>2019-04-17T14:48:58Z</time>
      </trkpt>
      <trkpt lat="43.77748" lon="7.00869">
        <ele>1033.4</ele>
        <time>2019-04-17T14:49:01Z</time>
      </trkpt>
      <trkpt lat="43.77742" lon="7.00874">
        <ele>1032.6</ele>
        <time>2019-04-17T14:49:08Z</time>
      </trkpt>
      <trkpt lat="43.77734" lon="7.0088">
        <ele>1030.4</ele>
        <time>2019-04-17T14:49:16Z</time>
      </trkpt>
      <trkpt lat="43.77733" lon="7.00885">
        <ele>1031.6</ele>
        <time>2019-04-17T14:49:22Z</time>
      </trkpt>
      <trkpt lat="43.77734" lon="7.00886">
        <ele>1031.8</ele>
        <time>2019-04-17T14:49:32Z</time>
      </trkpt>
      <trkpt lat="43.77735" lon="7.00884">
        <ele>1030</ele>
        <time>2019-04-17T14:50:03Z</time>
      </trkpt>
      <trkpt lat="43.77735" lon="7.00883">
        <ele>1030</ele>
        <time>2019-04-17T14:50:14Z</time>
      </trkpt>
      <trkpt lat="43.77735" lon="7.00883">
        <ele>1030</ele>
        <time>2019-04-17T14:50:39Z</time>
      </trkpt>
      <trkpt lat="43.77735" lon="7.00883">
        <ele>1030</ele>
        <time>2019-04-17T14:50:52Z</time>
      </trkpt>
      <trkpt lat="43.7774" lon="7.0089">
        <ele>1033.2</ele>
        <time>2019-04-17T14:52:23Z</time>
      </trkpt>
      <trkpt lat="43.77783" lon="7.00905">
        <ele>1032.2</ele>
        <time>2019-04-17T14:53:01Z</time>
      </trkpt>
      <trkpt lat="43.77811" lon="7.00949">
        <ele>1029.8</ele>
        <time>2019-04-17T14:53:35Z</time>
      </trkpt>
      <trkpt lat="43.77837" lon="7.01">
        <ele>1030.8</ele>
        <time>2019-04-17T14:54:09Z</time>
      </trkpt>
      <trkpt lat="43.77848" lon="7.01011">
        <ele>1033.8</ele>
        <time>2019-04-17T14:54:22Z</time>
      </trkpt>
      <trkpt lat="43.77854" lon="7.01032">
        <ele>1037.4</ele>
        <time>2019-04-17T14:54:35Z</time>
      </trkpt>
      <trkpt lat="43.77862" lon="7.01059">
        <ele>1039</ele>
        <time>2019-04-17T14:54:53Z</time>
      </trkpt>
      <trkpt lat="43.77869" lon="7.01073">
        <ele>1040.2</ele>
        <time>2019-04-17T14:55:05Z</time>
      </trkpt>
      <trkpt lat="43.77877" lon="7.01084">
        <ele>1039.2</ele>
        <time>2019-04-17T14:55:14Z</time>
      </trkpt>
      <trkpt lat="43.77895" lon="7.0114">
        <ele>1042</ele>
        <time>2019-04-17T14:55:52Z</time>
      </trkpt>
      <trkpt lat="43.77917" lon="7.01193">
        <ele>1047</ele>
        <time>2019-04-17T14:56:33Z</time>
      </trkpt>
      <trkpt lat="43.77942" lon="7.01222">
        <ele>1047.4</ele>
        <time>2019-04-17T14:57:00Z</time>
      </trkpt>
      <trkpt lat="43.77973" lon="7.01266">
        <ele>1052.2</ele>
        <time>2019-04-17T14:57:39Z</time>
      </trkpt>
      <trkpt lat="43.77985" lon="7.01324">
        <ele>1058</ele>
        <time>2019-04-17T14:58:16Z</time>
      </trkpt>
      <trkpt lat="43.77999" lon="7.01383">
        <ele>1059.8</ele>
        <time>2019-04-17T14:58:52Z</time>
      </trkpt>
      <trkpt lat="43.78016" lon="7.01441">
        <ele>1056.8</ele>
        <time>2019-04-17T14:59:29Z</time>
      </trkpt>
      <trkpt lat="43.78023" lon="7.01468">
        <ele>1056.8</ele>
        <time>2019-04-17T14:59:45Z</time>
      </trkpt>
      <trkpt lat="43.78049" lon="7.0151">
        <ele>1056.6</ele>
        <time>2019-04-17T15:00:16Z</time>
      </trkpt>
      <trkpt lat="43.78075" lon="7.0156">
        <ele>1062.4</ele>
        <time>2019-04-17T15:00:50Z</time>
      </trkpt>
      <trkpt lat="43.7809" lon="7.01618">
        <ele>1060.6</ele>
        <time>2019-04-17T15:01:24Z</time>
      </trkpt>
      <trkpt lat="43.78113" lon="7.01672">
        <ele>1059.2</ele>
        <time>2019-04-17T15:02:00Z</time>
      </trkpt>
      <trkpt lat="43.78126" lon="7.01713">
        <ele>1061.8</ele>
        <time>2019-04-17T15:02:26Z</time>
      </trkpt>
      <trkpt lat="43.78139" lon="7.01772">
        <ele>1063</ele>
        <time>2019-04-17T15:03:01Z</time>
      </trkpt>
      <trkpt lat="43.78161" lon="7.01826">
        <ele>1063.8</ele>
        <time>2019-04-17T15:03:35Z</time>
      </trkpt>
      <trkpt lat="43.78187" lon="7.01865">
        <ele>1064.2</ele>
        <time>2019-04-17T15:04:06Z</time>
      </trkpt>
      <trkpt lat="43.78199" lon="7.01924">
        <ele>1063.2</ele>
        <time>2019-04-17T15:04:41Z</time>
      </trkpt>
      <trkpt lat="43.78224" lon="7.01976">
        <ele>1060.6</ele>
        <time>2019-04-17T15:05:16Z</time>
      </trkpt>
      <trkpt lat="43.7824" lon="7.0203">
        <ele>1064</ele>
        <time>2019-04-17T15:05:51Z</time>
      </trkpt>
      <trkpt lat="43.78242" lon="7.02044">
        <ele>1065.8</ele>
        <time>2019-04-17T15:06:01Z</time>
      </trkpt>
      <trkpt lat="43.7827" lon="7.02094">
        <ele>1077.2</ele>
        <time>2019-04-17T15:06:35Z</time>
      </trkpt>
      <trkpt lat="43.78292" lon="7.02145">
        <ele>1067.6</ele>
        <time>2019-04-17T15:07:10Z</time>
      </trkpt>
      <trkpt lat="43.78307" lon="7.02189">
        <ele>1062.6</ele>
        <time>2019-04-17T15:07:37Z</time>
      </trkpt>
      <trkpt lat="43.78341" lon="7.0223">
        <ele>1062</ele>
        <time>2019-04-17T15:08:11Z</time>
      </trkpt>
      <trkpt lat="43.78367" lon="7.02276">
        <ele>1052.8</ele>
        <time>2019-04-17T15:08:45Z</time>
      </trkpt>
      <trkpt lat="43.78386" lon="7.02331">
        <ele>1050.4</ele>
        <time>2019-04-17T15:09:17Z</time>
      </trkpt>
      <trkpt lat="43.78392" lon="7.02391">
        <ele>1051.6</ele>
        <time>2019-04-17T15:09:48Z</time>
      </trkpt>
      <trkpt lat="43.78396" lon="7.02452">
        <ele>1050.2</ele>
        <time>2019-04-17T15:10:20Z</time>
      </trkpt>
      <trkpt lat="43.78405" lon="7.02501">
        <ele>1051.8</ele>
        <time>2019-04-17T15:10:50Z</time>
      </trkpt>
      <trkpt lat="43.78423" lon="7.02556">
        <ele>1052.8</ele>
        <time>2019-04-17T15:11:22Z</time>
      </trkpt>
      <trkpt lat="43.78426" lon="7.02567">
        <ele>1052.6</ele>
        <time>2019-04-17T15:11:33Z</time>
      </trkpt>
      <trkpt lat="43.7843" lon="7.02593">
        <ele>1049.2</ele>
        <time>2019-04-17T15:11:50Z</time>
      </trkpt>
      <trkpt lat="43.78448" lon="7.0265">
        <ele>1042</ele>
        <time>2019-04-17T15:12:24Z</time>
      </trkpt>
      <trkpt lat="43.78458" lon="7.02688">
        <ele>1032</ele>
        <time>2019-04-17T15:12:48Z</time>
      </trkpt>
      <trkpt lat="43.78468" lon="7.0275">
        <ele>1029</ele>
        <time>2019-04-17T15:13:24Z</time>
      </trkpt>
      <trkpt lat="43.78479" lon="7.0281">
        <ele>1019.4</ele>
        <time>2019-04-17T15:14:03Z</time>
      </trkpt>
      <trkpt lat="43.78482" lon="7.0282">
        <ele>1019.2</ele>
        <time>2019-04-17T15:14:11Z</time>
      </trkpt>
      <trkpt lat="43.78483" lon="7.02823">
        <ele>1019</ele>
        <time>2019-04-17T15:14:13Z</time>
      </trkpt>
      <trkpt lat="43.78488" lon="7.0285">
        <ele>1022.2</ele>
        <time>2019-04-17T15:14:31Z</time>
      </trkpt>
      <trkpt lat="43.78513" lon="7.02901">
        <ele>1019.6</ele>
        <time>2019-04-17T15:15:03Z</time>
      </trkpt>
      <trkpt lat="43.78517" lon="7.0291">
        <ele>1018</ele>
        <time>2019-04-17T15:15:11Z</time>
      </trkpt>
      <trkpt lat="43.78541" lon="7.02962">
        <ele>1005.2</ele>
        <time>2019-04-17T15:15:50Z</time>
      </trkpt>
      <trkpt lat="43.7855" lon="7.02989">
        <ele>1002</ele>
        <time>2019-04-17T15:16:07Z</time>
      </trkpt>
      <trkpt lat="43.78556" lon="7.03006">
        <ele>996.2</ele>
        <time>2019-04-17T15:16:19Z</time>
      </trkpt>
      <trkpt lat="43.78586" lon="7.03052">
        <ele>993</ele>
        <time>2019-04-17T15:16:57Z</time>
      </trkpt>
      <trkpt lat="43.78588" lon="7.03057">
        <ele>990.4</ele>
        <time>2019-04-17T15:17:25Z</time>
      </trkpt>
      <trkpt lat="43.78591" lon="7.03061">
        <ele>989</ele>
        <time>2019-04-17T15:17:30Z</time>
      </trkpt>
      <trkpt lat="43.7862" lon="7.03092">
        <ele>984.8</ele>
        <time>2019-04-17T15:17:58Z</time>
      </trkpt>
      <trkpt lat="43.78632" lon="7.0311">
        <ele>981.4</ele>
        <time>2019-04-17T15:18:23Z</time>
      </trkpt>
      <trkpt lat="43.7866" lon="7.03159">
        <ele>979</ele>
        <time>2019-04-17T15:18:57Z</time>
      </trkpt>
      <trkpt lat="43.78673" lon="7.03216">
        <ele>976.4</ele>
        <time>2019-04-17T15:19:32Z</time>
      </trkpt>
      <trkpt lat="43.78677" lon="7.03277">
        <ele>980.4</ele>
        <time>2019-04-17T15:20:05Z</time>
      </trkpt>
      <trkpt lat="43.78668" lon="7.03337">
        <ele>975.8</ele>
        <time>2019-04-17T15:20:39Z</time>
      </trkpt>
      <trkpt lat="43.7871" lon="7.03358">
        <ele>965.6</ele>
        <time>2019-04-17T15:21:18Z</time>
      </trkpt>
      <trkpt lat="43.78752" lon="7.03383">
        <ele>968.6</ele>
        <time>2019-04-17T15:21:48Z</time>
      </trkpt>
      <trkpt lat="43.78793" lon="7.0341">
        <ele>967.8</ele>
        <time>2019-04-17T15:22:19Z</time>
      </trkpt>
      <trkpt lat="43.78834" lon="7.03432">
        <ele>963.8</ele>
        <time>2019-04-17T15:22:55Z</time>
      </trkpt>
      <trkpt lat="43.78844" lon="7.03426">
        <ele>970.4</ele>
        <time>2019-04-17T15:23:15Z</time>
      </trkpt>
      <trkpt lat="43.78845" lon="7.03426">
        <ele>971.2</ele>
        <time>2019-04-17T15:23:31Z</time>
      </trkpt>
      <trkpt lat="43.78844" lon="7.03427">
        <ele>971.8</ele>
        <time>2019-04-17T15:23:44Z</time>
      </trkpt>
      <trkpt lat="43.78844" lon="7.03427">
        <ele>972</ele>
        <time>2019-04-17T15:23:45Z</time>
      </trkpt>
    </trkseg>
  </trk>
</gpx>